createdAt,value
2023-05-11T00:01:10.339Z,99850.00
2023-05-11T00:03:38.436Z,99845.03
2023-05-11T00:06:05.954Z,99845.91
2023-05-11T00:08:33.388Z,99834.56
2023-05-11T00:11:01.561Z,99833.69
2023-05-11T00:13:29.046Z,99829.69
2023-05-11T00:15:56.517Z,99830.97
2023-05-11T00:18:24.257Z,99834.31
2023-05-11T00:20:51.592Z,99839.94
2023-05-11T00:23:18.934Z,99835.78
2023-05-11T00:25:46.584Z,99837.03
2023-05-11T00:28:13.925Z,99836.03
2023-05-11T00:30:41.448Z,99844.12
2023-05-11T00:33:09.093Z,99840.41
2023-05-11T00:35:36.473Z,99840.66
2023-05-11T00:38:03.853Z,99831.72
2023-05-11T00:40:31.740Z,99842.34
2023-05-11T00:42:59.125Z,99832.44
2023-05-11T00:45:26.779Z,99838.84
2023-05-11T00:47:54.446Z,99834.91
2023-05-11T00:50:21.928Z,99831.41
2023-05-11T00:52:49.306Z,99826.81
2023-05-11T00:55:17.473Z,99827.56
2023-05-11T00:57:44.870Z,99839.66
2023-05-11T01:00:12.786Z,99838.00
2023-05-11T01:02:40.727Z,99821.59
2023-05-11T01:05:08.895Z,99823.13
2023-05-11T01:07:48.921Z,99825.97
2023-05-11T01:10:42.955Z,99823.53
2023-05-11T01:13:10.180Z,99819.50
2023-05-11T01:15:48.572Z,99818.97
2023-05-11T01:18:30.118Z,99817.28
2023-05-11T01:21:00.833Z,99812.91
2023-05-11T01:23:46.865Z,99817.19
2023-05-11T01:26:35.234Z,99817.19
2023-05-11T01:29:20.883Z,99812.66
2023-05-11T01:31:48.666Z,99817.59
2023-05-11T01:34:21.518Z,99817.44
2023-05-11T01:37:00.182Z,99819.75
2023-05-11T01:39:33.126Z,99812.06
2023-05-11T01:42:05.068Z,99811.78
2023-05-11T01:44:32.447Z,99812.00
2023-05-11T01:47:01.008Z,99817.50
2023-05-11T01:49:29.873Z,99810.25
2023-05-11T01:51:57.192Z,99813.53
2023-05-11T01:54:24.542Z,99812.63
2023-05-11T01:56:52.357Z,99816.53
2023-05-11T01:59:19.841Z,99812.16
2023-05-11T02:01:47.348Z,99810.41
2023-05-11T02:04:15.006Z,99813.22
2023-05-11T02:06:42.365Z,99800.31
2023-05-11T02:09:10.085Z,99804.81
2023-05-11T02:11:38.970Z,99808.53
2023-05-11T02:14:06.369Z,99807.44
2023-05-11T02:16:33.752Z,99803.97
2023-05-11T02:19:01.446Z,99809.63
2023-05-11T02:21:29.158Z,99797.38
2023-05-11T02:23:56.599Z,99796.47
2023-05-11T02:26:23.963Z,99797.09
2023-05-11T02:28:51.913Z,99809.56
2023-05-11T02:31:21.117Z,99803.09
2023-05-11T02:33:52.124Z,99797.00
2023-05-11T02:36:21.722Z,99793.78
2023-05-11T02:38:50.375Z,99794.41
2023-05-11T02:41:21.986Z,99793.84
2023-05-11T02:43:51.406Z,99788.78
2023-05-11T02:46:23.546Z,99782.88
2023-05-11T02:48:54.445Z,99787.44
2023-05-11T02:51:33.316Z,99784.69
2023-05-11T02:54:01.326Z,99788.03
2023-05-11T02:56:29.385Z,99778.19
2023-05-11T02:58:56.981Z,99783.47
2023-05-11T03:01:25.549Z,99786.06
2023-05-11T03:03:53.753Z,99787.41
2023-05-11T03:06:21.492Z,99783.12
2023-05-11T03:08:49.161Z,99785.56
2023-05-11T03:11:17.897Z,99792.63
2023-05-11T03:13:46.021Z,99792.03
2023-05-11T03:16:14.535Z,99790.16
2023-05-11T03:18:42.030Z,99789.31
2023-05-11T03:21:09.471Z,99791.00
2023-05-11T03:23:37.123Z,99794.91
2023-05-11T03:26:04.708Z,99788.06
2023-05-11T03:28:32.130Z,99791.00
2023-05-11T03:30:59.902Z,99792.19
2023-05-11T03:33:27.269Z,99796.53
2023-05-11T03:35:54.734Z,99797.78
2023-05-11T03:38:23.471Z,99797.38
2023-05-11T03:40:52.092Z,99802.53
2023-05-11T03:43:19.892Z,99797.59
2023-05-11T03:45:48.417Z,99796.97
2023-05-11T03:48:16.600Z,99796.75
2023-05-11T03:50:44.091Z,99799.22
2023-05-11T03:53:12.019Z,99798.59
2023-05-11T03:55:39.423Z,99801.72
2023-05-11T03:58:08.848Z,99795.06
2023-05-11T04:00:40.357Z,99801.28
2023-05-11T04:03:08.858Z,99801.50
2023-05-11T04:05:36.290Z,99805.59
2023-05-11T04:08:04.512Z,99803.75
2023-05-11T04:10:32.155Z,99803.75
2023-05-11T04:12:59.525Z,99805.63
2023-05-11T04:15:26.907Z,99804.16
2023-05-11T04:17:54.532Z,99801.28
2023-05-11T04:20:21.972Z,99804.94
2023-05-11T04:22:49.331Z,99805.38
2023-05-11T04:25:16.992Z,99816.34
2023-05-11T04:27:45.709Z,99814.88
2023-05-11T04:30:13.141Z,99821.69
2023-05-11T04:32:40.853Z,99815.69
2023-05-11T04:35:09.529Z,99819.84
2023-05-11T04:37:37.532Z,99825.84
2023-05-11T04:40:07.358Z,99825.22
2023-05-11T04:42:35.111Z,99823.16
2023-05-11T04:45:03.599Z,99820.22
2023-05-11T04:47:32.712Z,99828.09
2023-05-11T04:50:00.471Z,99833.87
2023-05-11T04:52:27.979Z,99820.56
2023-05-11T04:54:56.331Z,99826.75
2023-05-11T04:57:24.285Z,99823.28
2023-05-11T04:59:51.724Z,99825.34
2023-05-11T05:02:19.391Z,99821.13
2023-05-11T05:04:46.769Z,99821.56
2023-05-11T05:07:15.067Z,99819.25
2023-05-11T05:09:45.187Z,99812.63
2023-05-11T05:12:13.918Z,99804.72
2023-05-11T05:14:41.252Z,99804.50
2023-05-11T05:17:09.036Z,99806.41
2023-05-11T05:19:37.362Z,99807.88
2023-05-11T05:22:05.925Z,99801.34
2023-05-11T05:24:33.758Z,99804.72
2023-05-11T05:27:01.837Z,99802.22
2023-05-11T05:29:29.286Z,99796.63
2023-05-11T05:31:59.941Z,99800.31
2023-05-11T05:34:27.948Z,99794.00
2023-05-11T05:36:55.361Z,99782.78
2023-05-11T05:39:23.053Z,99788.03
2023-05-11T05:41:51.137Z,99782.88
2023-05-11T05:44:18.702Z,99786.03
2023-05-11T05:46:46.412Z,99800.63
2023-05-11T05:49:14.690Z,99799.19
2023-05-11T05:51:42.953Z,99806.81
2023-05-11T05:54:11.397Z,99796.59
2023-05-11T05:56:40.586Z,99810.06
2023-05-11T05:59:10.780Z,99813.75
2023-05-11T06:01:44.220Z,99790.25
2023-05-11T06:04:13.092Z,99791.22
2023-05-11T06:06:40.718Z,99805.19
2023-05-11T06:09:08.112Z,99793.06
2023-05-11T06:11:35.723Z,99799.44
2023-05-11T06:14:03.106Z,99806.97
2023-05-11T06:16:31.145Z,99808.69
2023-05-11T06:19:00.442Z,99794.34
2023-05-11T06:21:28.118Z,99807.56
2023-05-11T06:23:55.617Z,99809.25
2023-05-11T06:26:25.384Z,99813.16
2023-05-11T06:28:52.989Z,99826.94
2023-05-11T06:31:20.475Z,99821.44
2023-05-11T06:33:49.117Z,99823.84
2023-05-11T06:36:19.087Z,99806.25
2023-05-11T06:38:46.544Z,99805.63
2023-05-11T06:41:14.234Z,99816.84
2023-05-11T06:43:42.273Z,99807.16
2023-05-11T06:46:17.671Z,99802.97
2023-05-11T06:48:45.151Z,99804.06
2023-05-11T06:51:12.563Z,99801.88
2023-05-11T06:53:40.201Z,99791.97
2023-05-11T06:56:08.212Z,99799.66
2023-05-11T06:58:35.578Z,99801.66
2023-05-11T07:01:07.736Z,99793.66
2023-05-11T07:03:35.315Z,99785.53
2023-05-11T07:06:03.359Z,99787.50
2023-05-11T07:08:30.697Z,99789.03
2023-05-11T07:10:58.287Z,99788.59
2023-05-11T07:13:25.993Z,99775.75
2023-05-11T07:15:54.648Z,99765.28
2023-05-11T07:18:24.070Z,99756.63
2023-05-11T07:20:51.801Z,99766.28
2023-05-11T07:23:19.172Z,99759.97
2023-05-11T07:25:46.504Z,99759.41
2023-05-11T07:28:14.255Z,99749.97
2023-05-11T07:30:41.595Z,99753.12
2023-05-11T07:33:09.035Z,99747.50
2023-05-11T07:35:36.975Z,99764.87
2023-05-11T07:38:06.177Z,99753.72
2023-05-11T07:40:33.814Z,99757.69
2023-05-11T07:43:01.856Z,99749.53
2023-05-11T07:45:29.237Z,99790.50
2023-05-11T07:47:56.791Z,99776.44
2023-05-11T07:50:24.966Z,99750.91
2023-05-11T07:52:52.572Z,99754.97
2023-05-11T07:55:24.911Z,99744.56
2023-05-11T07:57:54.348Z,99755.84
2023-05-11T08:00:21.971Z,99780.78
2023-05-11T08:02:49.683Z,99764.16
2023-05-11T08:05:17.639Z,99754.50
2023-05-11T08:07:45.201Z,99756.53
2023-05-11T08:10:12.954Z,99758.19
2023-05-11T08:12:40.355Z,99760.16
2023-05-11T08:15:08.202Z,99754.69
2023-05-11T08:17:36.586Z,99747.81
2023-05-11T08:20:07.360Z,99736.66
2023-05-11T08:22:35.019Z,99730.81
2023-05-11T08:25:03.647Z,99742.34
2023-05-11T08:27:30.964Z,99719.34
2023-05-11T08:29:58.419Z,99739.44
2023-05-11T08:32:27.272Z,99731.31
2023-05-11T08:34:55.133Z,99706.41
2023-05-11T08:37:22.871Z,99744.00
2023-05-11T08:39:51.285Z,99743.16
2023-05-11T08:42:18.646Z,99739.25
2023-05-11T08:44:46.025Z,99730.44
2023-05-11T08:49:43.898Z,99731.28
2023-05-11T08:52:11.332Z,99724.44
2023-05-11T08:54:39.129Z,99725.38
2023-05-11T08:57:07.161Z,99721.00
2023-05-11T08:59:34.513Z,99708.81
2023-05-11T09:02:02.269Z,99683.56
2023-05-11T09:04:29.663Z,99693.38
2023-05-11T09:06:57.630Z,99683.06
2023-05-11T09:09:25.238Z,99694.84
2023-05-11T09:11:54.140Z,99685.69
2023-05-11T09:14:27.150Z,99704.81
2023-05-11T09:16:55.081Z,99693.88
2023-05-11T09:19:22.523Z,99685.28
2023-05-11T09:21:52.130Z,99672.38
2023-05-11T09:24:20.432Z,99714.19
2023-05-11T09:26:48.008Z,99681.28
2023-05-11T09:29:16.020Z,99684.94
2023-05-11T09:31:44.879Z,99668.78
2023-05-11T09:34:22.777Z,99677.06
2023-05-11T09:36:55.218Z,99671.94
2023-05-11T09:42:21.564Z,99683.25
2023-05-11T09:44:48.936Z,99663.19
2023-05-11T09:47:21.165Z,99662.56
2023-05-11T09:49:48.918Z,99661.97
2023-05-11T09:52:17.506Z,99666.25
2023-05-11T09:54:46.435Z,99668.94
2023-05-11T09:57:24.111Z,99710.50
2023-05-11T09:59:51.784Z,99687.87
2023-05-11T10:02:29.673Z,99673.13
2023-05-11T10:04:58.471Z,99657.28
2023-05-11T10:07:30.057Z,99671.50
2023-05-11T10:10:04.880Z,99679.53
2023-05-11T10:12:33.605Z,99659.97
2023-05-11T10:15:02.594Z,99649.00
2023-05-11T10:17:30.963Z,99686.72
2023-05-11T10:19:58.536Z,99669.69
2023-05-11T10:22:26.800Z,99674.59
2023-05-11T10:24:54.783Z,99663.19
2023-05-11T10:27:22.291Z,99664.88
2023-05-11T10:29:50.516Z,99651.63
2023-05-11T10:32:18.745Z,99667.88
2023-05-11T10:34:46.724Z,99667.75
2023-05-11T10:37:15.305Z,99658.16
2023-05-11T10:39:43.408Z,99657.47
2023-05-11T10:42:33.627Z,99649.19
2023-05-11T10:45:27.249Z,99663.06
2023-05-11T10:48:03.811Z,99650.44
2023-05-11T10:50:46.718Z,99674.28
2023-05-11T10:53:24.593Z,99672.25
2023-05-11T10:56:13.558Z,99678.00
2023-05-11T10:58:57.926Z,99664.28
2023-05-11T11:01:40.837Z,99665.00
2023-05-11T11:04:14.502Z,99657.75
2023-05-11T11:06:43.143Z,99669.19
2023-05-11T11:09:13.542Z,99656.41
2023-05-11T11:11:47.879Z,99654.47
2023-05-11T11:14:16.020Z,99659.78
2023-05-11T11:17:14.640Z,99656.53
2023-05-11T11:19:42.466Z,99661.16
2023-05-11T11:22:34.792Z,99650.97
2023-05-11T11:25:05.285Z,99649.25
2023-05-11T11:27:41.937Z,99660.59
2023-05-11T11:30:19.152Z,99665.53
2023-05-11T11:32:53.597Z,99651.47
2023-05-11T11:35:39.522Z,99672.94
2023-05-11T11:38:08.011Z,99664.63
2023-05-11T11:40:49.600Z,99651.19
2023-05-11T11:43:25.896Z,99646.25
2023-05-11T11:45:54.113Z,99666.50
2023-05-11T11:48:22.795Z,99646.31
2023-05-11T11:50:50.282Z,99655.16
2023-05-11T11:53:36.404Z,99644.94
2023-05-11T11:56:04.530Z,99642.25
2023-05-11T11:58:41.131Z,99663.19
2023-05-11T12:01:19.009Z,99666.25
2023-05-11T12:03:47.702Z,99655.59
2023-05-11T12:06:15.464Z,99671.25
2023-05-11T12:08:43.593Z,99650.25
2023-05-11T12:11:11.210Z,99649.16
2023-05-11T12:13:38.589Z,99627.47
2023-05-11T12:16:16.684Z,99624.72
2023-05-11T12:18:55.350Z,99625.19
2023-05-11T12:21:27.695Z,99661.62
2023-05-11T12:24:02.521Z,99617.97
2023-05-11T12:26:30.896Z,99632.19
2023-05-11T12:29:14.533Z,99633.84
2023-05-11T12:31:43.497Z,99635.34
2023-05-11T12:34:17.913Z,99639.62
2023-05-11T12:36:45.988Z,99624.34
2023-05-11T12:39:24.036Z,99622.78
2023-05-11T12:41:53.545Z,99618.28
2023-05-11T12:44:22.686Z,99613.44
2023-05-11T12:46:50.606Z,99608.19
2023-05-11T12:52:02.200Z,99599.25
2023-05-11T12:54:39.206Z,99608.09
2023-05-11T12:57:08.399Z,99615.50
2023-05-11T12:59:41.943Z,99599.47
2023-05-11T13:02:10.261Z,99613.13
2023-05-11T13:04:39.719Z,99587.25
2023-05-11T13:07:07.208Z,99587.06
2023-05-11T13:09:34.894Z,99592.53
2023-05-11T13:12:13.411Z,99587.69
2023-05-11T13:14:41.666Z,99600.25
2023-05-11T13:17:09.062Z,99586.47
2023-05-11T13:19:37.677Z,99583.13
2023-05-11T13:22:05.843Z,99578.41
2023-05-11T13:24:34.642Z,99583.84
2023-05-11T13:27:02.321Z,99577.53
2023-05-11T13:29:30.031Z,99571.31
2023-05-11T13:31:57.437Z,99584.91
2023-05-11T13:34:25.146Z,99573.91
2023-05-11T13:36:52.777Z,99580.13
2023-05-11T13:39:20.878Z,99587.44
2023-05-11T13:41:48.582Z,99569.41
2023-05-11T13:44:16.789Z,99564.84
2023-05-11T13:46:44.211Z,99553.66
2023-05-11T13:49:12.120Z,99557.84
2023-05-11T13:51:39.741Z,99568.13
2023-05-11T13:54:07.168Z,99566.75
2023-05-11T13:56:34.601Z,99556.19
2023-05-11T13:59:02.251Z,99549.84
2023-05-11T14:01:29.720Z,99546.75
2023-05-11T14:03:57.435Z,99549.47
2023-05-11T14:06:25.154Z,99553.97
2023-05-11T14:08:52.748Z,99555.91
2023-05-11T14:11:21.078Z,99549.41
2023-05-11T14:13:51.800Z,99543.81
2023-05-11T14:16:19.806Z,99539.19
2023-05-11T14:18:48.323Z,99542.31
2023-05-11T14:21:16.086Z,99539.50
2023-05-11T14:23:53.758Z,99529.31
2023-05-11T14:26:30.011Z,99536.00
2023-05-11T14:28:57.509Z,99534.41
2023-05-11T14:31:26.011Z,99527.69
2023-05-11T14:33:53.654Z,99533.91
2023-05-11T14:36:21.398Z,99534.25
2023-05-11T14:38:48.775Z,99547.41
2023-05-11T14:41:16.428Z,99527.69
2023-05-11T14:43:43.756Z,99528.59
2023-05-11T14:46:11.270Z,99533.88
2023-05-11T14:48:38.945Z,99525.66
2023-05-11T14:51:06.441Z,99538.59
2023-05-11T14:53:33.823Z,99532.09
2023-05-11T14:56:01.445Z,99540.09
2023-05-11T14:58:28.831Z,99533.69
2023-05-11T15:00:56.276Z,99537.78
2023-05-11T15:03:25.160Z,99527.78
2023-05-11T15:05:52.577Z,99531.78
2023-05-11T15:08:29.700Z,99539.91
2023-05-11T15:10:58.132Z,99547.12
2023-05-11T15:13:25.601Z,99549.88
2023-05-11T15:15:53.056Z,99554.59
2023-05-11T15:18:20.851Z,99548.81
2023-05-11T15:20:48.264Z,99554.19
2023-05-11T15:23:16.955Z,99546.06
2023-05-11T15:25:45.355Z,99539.91
2023-05-11T15:28:13.025Z,99549.66
2023-05-11T15:30:41.642Z,99557.16
2023-05-11T15:33:10.066Z,99550.28
2023-05-11T15:35:37.914Z,99548.94
2023-05-11T15:38:05.455Z,99545.84
2023-05-11T15:40:33.253Z,99542.22
2023-05-11T15:43:00.819Z,99547.16
2023-05-11T15:45:29.118Z,99540.69
2023-05-11T15:47:57.421Z,99542.31
2023-05-11T15:50:25.180Z,99549.03
2023-05-11T15:52:52.721Z,99557.28
2023-05-11T15:55:20.311Z,99552.69
2023-05-11T15:57:47.678Z,99554.84
2023-05-11T16:00:15.772Z,99553.63
2023-05-11T16:02:45.678Z,99549.03
2023-05-11T16:05:13.236Z,99552.56
2023-05-11T16:07:40.590Z,99558.97
2023-05-11T16:10:08.780Z,99566.50
2023-05-11T16:12:36.223Z,99559.66
2023-05-11T16:15:03.770Z,99565.06
2023-05-11T16:17:31.924Z,99569.44
2023-05-11T16:20:00.463Z,99568.06
2023-05-11T16:22:28.142Z,99572.22
2023-05-11T16:24:55.757Z,99576.19
2023-05-11T16:27:23.352Z,99573.53
2023-05-11T16:29:52.242Z,99584.72
2023-05-11T16:32:20.320Z,99585.00
2023-05-11T16:34:47.658Z,99599.31
2023-05-11T16:37:15.416Z,99593.91
2023-05-11T16:39:43.038Z,99597.53
2023-05-11T16:42:10.650Z,99604.19
2023-05-11T16:44:38.025Z,99605.94
2023-05-11T16:47:05.766Z,99607.66
2023-05-11T16:49:33.468Z,99613.06
2023-05-11T16:52:00.820Z,99619.56
2023-05-11T16:54:29.138Z,99623.62
2023-05-11T16:56:56.786Z,99619.84
2023-05-11T16:59:24.171Z,99627.16
2023-05-11T17:01:51.852Z,99623.34
2023-05-11T17:04:19.236Z,99623.97
2023-05-11T17:06:46.663Z,99628.50
2023-05-11T17:09:14.319Z,99635.72
2023-05-11T17:11:41.707Z,99632.06
2023-05-11T17:14:09.057Z,99631.78
2023-05-11T17:16:36.655Z,99640.97
2023-05-11T17:19:04.116Z,99639.56
2023-05-11T17:21:32.324Z,99642.25
2023-05-11T17:23:59.917Z,99646.41
2023-05-11T17:26:35.479Z,99650.34
2023-05-11T17:29:11.414Z,99651.81
2023-05-11T17:31:39.148Z,99649.06
2023-05-11T17:34:08.696Z,99653.31
2023-05-11T17:36:36.441Z,99668.19
2023-05-11T17:39:03.847Z,99668.59
2023-05-11T17:41:31.996Z,99674.25
2023-05-11T17:43:59.715Z,99679.66
2023-05-11T17:46:28.254Z,99678.38
2023-05-11T17:48:56.106Z,99672.78
2023-05-11T17:51:23.925Z,99680.22
2023-05-11T17:53:51.336Z,99689.34
2023-05-11T17:56:19.165Z,99696.72
2023-05-11T17:58:47.611Z,99692.50
2023-05-11T18:01:15.023Z,99693.72
2023-05-11T18:03:42.842Z,99705.13
2023-05-11T18:06:10.297Z,99707.12
2023-05-11T18:08:38.360Z,99714.41
2023-05-11T18:11:07.514Z,99719.09
2023-05-11T18:13:35.588Z,99724.13
2023-05-11T18:16:03.080Z,99732.94
2023-05-11T18:18:30.791Z,99732.97
2023-05-11T18:20:58.141Z,99739.19
2023-05-11T18:23:25.499Z,99746.09
2023-05-11T18:25:53.244Z,99752.13
2023-05-11T18:28:20.583Z,99750.37
2023-05-11T18:30:47.982Z,99758.91
2023-05-11T18:33:15.727Z,99766.22
2023-05-11T18:35:43.173Z,99768.75
2023-05-11T18:38:10.544Z,99771.28
2023-05-11T18:40:38.267Z,99777.28
2023-05-11T18:43:05.607Z,99782.59
2023-05-11T18:45:34.817Z,99786.41
2023-05-11T18:48:03.623Z,99789.53
2023-05-11T18:50:31.005Z,99787.87
2023-05-11T18:52:58.415Z,99794.84
2023-05-11T18:55:29.039Z,99803.28
2023-05-11T18:57:58.573Z,99800.91
2023-05-11T19:00:26.288Z,99807.81
2023-05-11T19:02:54.724Z,99811.97
2023-05-11T19:05:22.314Z,99819.66
2023-05-11T19:07:49.920Z,99812.59
2023-05-11T19:10:18.188Z,99821.09
2023-05-11T19:12:46.189Z,99814.09
2023-05-11T19:15:13.828Z,99818.78
2023-05-11T19:17:41.336Z,99823.16
2023-05-11T19:20:09.421Z,99818.22
2023-05-11T19:22:37.077Z,99824.81
2023-05-11T19:25:05.403Z,99833.44
2023-05-11T19:27:32.914Z,99833.28
2023-05-11T19:30:00.549Z,99824.41
2023-05-11T19:32:28.010Z,99829.72
2023-05-11T19:34:55.412Z,99833.19
2023-05-11T19:37:23.021Z,99837.38
2023-05-11T19:39:51.035Z,99835.28
2023-05-11T19:42:25.868Z,99836.09
2023-05-11T19:44:59.670Z,99834.47
2023-05-11T19:47:27.148Z,99839.22
2023-05-11T19:49:54.527Z,99837.38
2023-05-11T19:52:22.172Z,99834.69
2023-05-11T19:54:49.523Z,99833.44
2023-05-11T19:57:17.333Z,99831.81
2023-05-11T19:59:44.907Z,99834.84
2023-05-11T20:02:12.278Z,99838.16
2023-05-11T20:04:45.067Z,99826.00
2023-05-11T20:07:12.435Z,99834.81
2023-05-11T20:09:40.249Z,99829.56
2023-05-11T20:12:07.671Z,99838.00
2023-05-11T20:14:36.778Z,99834.16
2023-05-11T20:17:05.060Z,99831.66
2023-05-11T20:19:32.450Z,99833.31
2023-05-11T20:21:59.819Z,99839.19
2023-05-11T20:24:27.470Z,99837.62
2023-05-11T20:26:54.822Z,99833.87
2023-05-11T20:29:22.278Z,99840.47
2023-05-11T20:31:49.971Z,99844.53
2023-05-11T20:34:17.461Z,99840.31
2023-05-11T20:36:44.872Z,99836.44
2023-05-11T20:39:13.393Z,99840.44
2023-05-11T20:41:40.873Z,99836.34
2023-05-11T20:44:13.645Z,99845.78
2023-05-11T20:46:41.301Z,99843.88
2023-05-11T20:49:10.293Z,99842.53
2023-05-11T20:51:37.686Z,99840.97
2023-05-11T20:54:07.228Z,99835.69
2023-05-11T20:56:34.637Z,99836.66
2023-05-11T20:59:01.997Z,99841.13
2023-05-11T21:01:29.655Z,99834.66
2023-05-11T21:03:57.134Z,99841.56
2023-05-11T21:06:24.489Z,99844.31
2023-05-11T21:08:52.115Z,99836.09
2023-05-11T21:11:19.486Z,99835.72
2023-05-11T21:13:46.898Z,99834.16
2023-05-11T21:16:14.552Z,99830.28
2023-05-11T21:18:43.112Z,99829.44
2023-05-11T21:21:10.485Z,99827.09
2023-05-11T21:23:38.142Z,99827.97
2023-05-11T21:26:05.560Z,99831.41
2023-05-11T21:28:34.627Z,99826.13
2023-05-11T21:31:02.275Z,99820.44
2023-05-11T21:33:29.615Z,99821.31
2023-05-11T21:35:57.199Z,99823.22
2023-05-11T21:38:24.830Z,99830.59
2023-05-11T21:40:55.278Z,99834.37
2023-05-11T21:43:22.685Z,99834.72
2023-05-11T21:45:50.485Z,99838.12
2023-05-11T21:48:17.847Z,99837.06
2023-05-11T21:50:45.319Z,99835.59
2023-05-11T21:53:13.103Z,99831.06
2023-05-11T21:55:40.464Z,99835.53
2023-05-11T21:58:08.796Z,99838.34
2023-05-11T22:00:37.326Z,99834.69
2023-05-11T22:03:05.050Z,99831.97
2023-05-11T22:05:32.438Z,99831.47
2023-05-11T22:08:13.220Z,99835.28
2023-05-11T22:10:43.061Z,99831.75
2023-05-11T22:13:10.784Z,99833.19
2023-05-11T22:15:38.315Z,99832.25
2023-05-11T22:18:06.063Z,99835.28
2023-05-11T22:20:33.479Z,99837.00
2023-05-11T22:23:00.814Z,99836.72
2023-05-11T22:25:28.458Z,99837.62
2023-05-11T22:27:55.838Z,99838.34
2023-05-11T22:30:23.302Z,99847.87
2023-05-11T22:32:50.977Z,99843.00
2023-05-11T22:35:18.431Z,99849.63
2023-05-11T22:37:45.795Z,99851.25
2023-05-11T22:40:13.366Z,99845.38
2023-05-11T22:42:41.681Z,99845.84
2023-05-11T22:45:09.520Z,99849.69
2023-05-11T22:47:37.182Z,99848.34
2023-05-11T22:50:04.820Z,99847.03
2023-05-11T22:52:32.297Z,99852.00
2023-05-11T22:54:59.890Z,99842.53
2023-05-11T22:57:27.758Z,99847.44
2023-05-11T22:59:55.141Z,99852.22
2023-05-11T23:02:23.278Z,99846.06
2023-05-11T23:04:51.950Z,99839.66
2023-05-11T23:07:19.610Z,99850.34
2023-05-11T23:09:47.606Z,99845.34
2023-05-11T23:12:15.012Z,99845.34
2023-05-11T23:14:42.374Z,99852.84
2023-05-11T23:17:10.031Z,99848.47
2023-05-11T23:19:37.425Z,99844.78
2023-05-11T23:22:04.920Z,99846.13
2023-05-11T23:24:32.526Z,99851.16
2023-05-11T23:27:00.145Z,99848.34
2023-05-11T23:29:27.949Z,99855.31
2023-05-11T23:31:56.154Z,99851.63
2023-05-11T23:34:23.479Z,99844.88
2023-05-11T23:36:50.806Z,99847.66
2023-05-11T23:39:18.590Z,99837.78
2023-05-11T23:41:46.141Z,99837.53
2023-05-11T23:44:13.493Z,99839.50
2023-05-11T23:46:41.093Z,99834.88
2023-05-11T23:49:08.491Z,99834.97
2023-05-11T23:51:35.845Z,99828.84
2023-05-11T23:54:03.513Z,99824.69
2023-05-11T23:56:30.866Z,99833.03
2023-05-11T23:58:58.194Z,99822.28
